createdAt,value
2022-08-31T14:01:42.268Z,81.15
2022-08-31T14:04:52.558Z,80.78
2022-08-31T14:07:26.935Z,80.25
2022-08-31T14:10:00.014Z,79.98
2022-08-31T14:12:38.392Z,80.00
2022-08-31T14:15:19.646Z,79.78
2022-08-31T14:21:19.035Z,79.26
2022-08-31T14:23:45.458Z,79.55
2022-08-31T14:26:17.943Z,80.01
2022-08-31T14:28:49.282Z,79.55
2022-08-31T14:31:27.195Z,79.25
2022-08-31T14:33:58.168Z,79.51
2022-08-31T14:36:28.393Z,79.56
2022-08-31T14:41:20.967Z,78.44
2022-08-31T14:43:51.092Z,78.22
2022-08-31T14:46:30.004Z,77.99
2022-08-31T14:49:00.057Z,78.24
2022-08-31T14:51:30.245Z,78.08
2022-08-31T14:54:00.741Z,77.87
2022-08-31T14:56:35.202Z,77.97
2022-08-31T14:59:14.722Z,77.73
2022-08-31T15:01:47.046Z,77.76
2022-08-31T15:04:20.284Z,77.60
2022-08-31T15:06:56.115Z,77.60
2022-08-31T15:09:26.486Z,77.39
2022-08-31T15:11:56.852Z,77.41
2022-08-31T15:14:27.814Z,77.67
2022-08-31T15:17:03.214Z,77.58
2022-08-31T15:19:33.419Z,77.51
2022-08-31T15:22:07.686Z,77.72
2022-08-31T15:24:40.744Z,77.66
2022-08-31T15:27:14.863Z,77.35
2022-08-31T15:29:51.690Z,77.48
2022-08-31T15:32:22.880Z,77.55
2022-08-31T15:34:59.890Z,77.62
2022-08-31T15:37:34.951Z,77.76
2022-08-31T15:40:07.378Z,77.45
2022-08-31T15:42:41.641Z,77.45
2022-08-31T15:45:12.417Z,77.64
2022-08-31T15:48:01.463Z,77.58
2022-08-31T15:50:32.606Z,77.63
2022-08-31T15:53:09.456Z,77.54
2022-08-31T15:55:42.484Z,77.38
2022-08-31T15:58:13.071Z,77.70
2022-08-31T16:00:44.043Z,77.53
2022-08-31T16:03:14.710Z,77.48
2022-08-31T16:05:45.639Z,77.69
2022-08-31T16:08:16.533Z,77.51
2022-08-31T16:10:49.183Z,77.49
2022-08-31T16:13:19.875Z,77.54
2022-08-31T16:15:55.009Z,77.56
2022-08-31T16:18:25.562Z,77.92
2022-08-31T16:20:55.681Z,77.95
2022-08-31T16:23:26.938Z,77.75
2022-08-31T16:25:56.668Z,77.85
2022-08-31T16:28:26.640Z,77.84
2022-08-31T16:30:58.727Z,77.92
2022-08-31T16:33:29.312Z,78.01
2022-08-31T16:35:59.436Z,77.80
2022-08-31T16:38:29.376Z,77.95
2022-08-31T16:41:04.520Z,77.87
2022-08-31T16:43:34.736Z,77.86
2022-08-31T16:46:24.237Z,77.99
2022-08-31T16:49:15.925Z,78.25
2022-08-31T16:51:48.628Z,77.95
2022-08-31T16:54:21.070Z,77.94
2022-08-31T16:56:51.962Z,78.00
2022-08-31T16:59:22.587Z,78.26
2022-08-31T17:01:53.016Z,78.19
2022-08-31T17:07:18.166Z,78.16
2022-08-31T17:09:48.822Z,78.47
2022-08-31T17:12:24.564Z,78.54
2022-08-31T17:14:55.228Z,78.60
2022-08-31T17:17:28.242Z,78.32
2022-08-31T17:19:58.371Z,78.61
2022-08-31T17:22:33.055Z,78.66
2022-08-31T17:25:06.181Z,78.71
2022-08-31T17:27:37.667Z,78.71
2022-08-31T17:30:11.007Z,78.80
2022-08-31T17:32:45.123Z,78.92
2022-08-31T17:35:20.318Z,78.96
2022-08-31T17:37:52.109Z,79.05
2022-08-31T17:40:22.408Z,78.91
2022-08-31T17:42:59.279Z,79.17
2022-08-31T17:45:30.004Z,79.02
2022-08-31T17:48:00.017Z,79.08
2022-08-31T17:50:29.992Z,78.92
2022-08-31T17:53:00.088Z,79.19
2022-08-31T17:55:32.038Z,79.13
2022-08-31T17:58:02.136Z,79.43
2022-08-31T18:00:34.761Z,79.17
2022-08-31T18:03:04.839Z,79.54
2022-08-31T18:05:34.994Z,79.63
2022-08-31T18:08:05.416Z,79.43
2022-08-31T18:10:35.820Z,79.69
2022-08-31T18:13:05.903Z,79.71
2022-08-31T18:15:37.311Z,79.63
2022-08-31T18:18:07.273Z,79.58
2022-08-31T18:20:41.495Z,79.64
2022-08-31T18:23:12.656Z,79.57
2022-08-31T18:25:43.077Z,79.83
2022-08-31T18:28:14.551Z,79.79
2022-08-31T18:30:44.343Z,79.89
2022-08-31T18:33:15.076Z,79.97
2022-08-31T18:35:48.908Z,80.02
2022-08-31T18:38:19.635Z,79.88
2022-08-31T18:44:12.273Z,79.91
2022-08-31T18:46:42.447Z,79.99
2022-08-31T18:49:12.832Z,79.83
2022-08-31T18:51:45.216Z,79.94
2022-08-31T18:54:17.256Z,79.83
2022-08-31T18:56:47.808Z,79.96
2022-08-31T18:59:19.990Z,80.09
2022-08-31T19:01:50.305Z,79.92
2022-08-31T19:04:22.027Z,80.07
2022-08-31T19:06:52.857Z,80.07
2022-08-31T19:09:25.510Z,80.04
2022-08-31T19:12:04.580Z,80.22
2022-08-31T19:14:39.829Z,80.13
2022-08-31T19:17:10.350Z,80.17
2022-08-31T19:19:40.613Z,80.23
2022-08-31T19:22:10.921Z,80.31
2022-08-31T19:24:42.257Z,79.94
2022-08-31T19:27:12.459Z,80.04
2022-08-31T19:29:44.309Z,80.26
2022-08-31T19:32:15.971Z,80.11
2022-08-31T19:34:46.534Z,80.13
2022-08-31T19:37:17.791Z,80.20
2022-08-31T19:39:48.351Z,80.26
2022-08-31T19:42:18.581Z,80.24
2022-08-31T19:45:22.900Z,79.89
2022-08-31T19:47:40.850Z,80.09
2022-08-31T19:50:14.289Z,80.30
2022-08-31T19:52:45.712Z,79.73
2022-08-31T19:55:16.138Z,80.12
2022-08-31T19:57:46.135Z,79.93
2022-08-31T20:00:18.144Z,79.85
2022-08-31T20:02:48.399Z,79.92
2022-08-31T20:05:18.685Z,80.42
2022-08-31T20:07:48.944Z,80.09
2022-08-31T20:10:20.205Z,80.11
2022-08-31T20:12:50.390Z,80.21
2022-08-31T20:15:22.705Z,80.37
2022-08-31T20:17:58.407Z,79.83
2022-08-31T20:20:31.125Z,80.06
2022-08-31T20:23:01.734Z,80.30
2022-08-31T20:25:31.804Z,79.98
2022-08-31T20:28:03.173Z,80.15
2022-08-31T20:30:38.750Z,80.23
2022-08-31T20:33:10.449Z,80.06
2022-08-31T20:35:49.414Z,80.01
2022-08-31T20:38:20.623Z,80.06
2022-08-31T20:40:55.225Z,80.11
2022-08-31T20:43:27.163Z,80.17
2022-08-31T20:45:57.466Z,80.31
2022-08-31T20:48:45.819Z,80.22
2022-08-31T20:51:22.207Z,80.30
2022-08-31T20:53:52.387Z,80.22
2022-08-31T20:56:28.285Z,80.41
2022-08-31T20:58:58.342Z,80.20
2022-08-31T21:01:29.450Z,80.46
2022-08-31T21:03:59.507Z,80.46
2022-08-31T21:06:29.794Z,80.43
2022-08-31T21:09:00.242Z,80.39
2022-08-31T21:11:30.760Z,80.42
2022-08-31T21:14:02.307Z,80.47
2022-08-31T21:16:34.321Z,80.42
2022-08-31T21:19:10.899Z,80.38
2022-08-31T21:21:45.900Z,80.45
2022-08-31T21:24:19.248Z,80.38
2022-08-31T21:26:50.408Z,80.62
2022-08-31T21:29:21.876Z,80.49
2022-08-31T21:32:02.584Z,80.53
2022-08-31T21:34:34.016Z,80.65
2022-08-31T21:37:04.223Z,80.59
2022-08-31T21:39:37.119Z,80.60
2022-08-31T21:42:07.543Z,80.46
2022-08-31T21:44:39.589Z,80.70
2022-08-31T21:47:12.008Z,80.59
2022-08-31T21:49:42.398Z,80.54
2022-08-31T21:52:13.963Z,80.72
2022-08-31T21:54:46.864Z,80.63
2022-08-31T21:57:17.741Z,80.75
2022-08-31T21:59:47.936Z,80.58
2022-08-31T22:02:18.101Z,80.51
2022-08-31T22:04:49.071Z,80.57
2022-08-31T22:07:19.448Z,80.71
2022-08-31T22:09:49.410Z,80.71
2022-08-31T22:12:20.374Z,80.75
2022-08-31T22:14:52.493Z,80.81
2022-08-31T22:17:36.977Z,80.75
2022-08-31T22:20:16.707Z,80.57
2022-08-31T22:22:47.172Z,80.73
2022-08-31T22:25:18.503Z,80.66
2022-08-31T22:27:49.012Z,80.62
2022-08-31T22:30:19.155Z,80.69
2022-08-31T22:32:50.214Z,80.64
2022-08-31T22:35:20.476Z,80.60
2022-08-31T22:37:50.800Z,80.80
2022-08-31T22:40:23.951Z,80.93
2022-08-31T22:42:56.730Z,80.88
2022-08-31T22:45:27.562Z,80.79
2022-08-31T22:47:57.628Z,81.09
2022-08-31T22:50:27.670Z,80.77
2022-08-31T22:52:57.847Z,80.74
2022-08-31T22:55:27.879Z,80.80
